createdAt,value
2022-11-07T00:01:13.942Z,100502.59
2022-11-07T00:03:46.474Z,100508.00
2022-11-07T00:06:18.929Z,100505.75
2022-11-07T00:08:53.948Z,100510.28
2022-11-07T00:11:26.277Z,100512.97
2022-11-07T00:13:58.677Z,100517.56
2022-11-07T00:16:31.648Z,100514.53
2022-11-07T00:19:03.976Z,100509.97
2022-11-07T00:21:36.320Z,100518.03
2022-11-07T00:24:08.813Z,100513.69
2022-11-07T00:26:41.116Z,100515.75
2022-11-07T00:29:14.448Z,100519.78
2022-11-07T00:31:47.630Z,100517.44
2022-11-07T00:34:19.897Z,100519.88
2022-11-07T00:36:52.269Z,100528.47
2022-11-07T00:39:24.893Z,100522.19
2022-11-07T00:41:57.259Z,100528.91
2022-11-07T00:44:29.731Z,100525.38
2022-11-07T00:47:02.265Z,100528.47
2022-11-07T00:49:34.561Z,100520.19
2022-11-07T00:52:06.855Z,100524.66
2022-11-07T00:54:39.133Z,100523.50
2022-11-07T00:57:11.417Z,100526.22
2022-11-07T00:59:43.897Z,100527.78
2022-11-07T01:02:16.279Z,100529.31
2022-11-07T01:05:07.204Z,100536.72
2022-11-07T01:07:39.762Z,100536.25
2022-11-07T01:10:12.053Z,100538.66
2022-11-07T01:12:44.443Z,100541.75
2022-11-07T01:15:16.774Z,100545.94
2022-11-07T01:17:49.162Z,100548.69
2022-11-07T01:20:21.454Z,100547.13
2022-11-07T01:22:53.739Z,100555.59
2022-11-07T01:25:26.031Z,100568.97
2022-11-07T01:27:58.346Z,100575.25
2022-11-07T01:30:30.614Z,100575.44
2022-11-07T01:33:03.045Z,100581.19
2022-11-07T01:35:35.710Z,100569.94
2022-11-07T01:38:08.052Z,100576.75
2022-11-07T01:41:00.926Z,100568.59
2022-11-07T01:43:50.817Z,100568.03
2022-11-07T01:46:29.060Z,100571.34
2022-11-07T01:49:11.483Z,100569.28
2022-11-07T01:51:49.012Z,100574.44
2022-11-07T01:54:23.286Z,100563.94
2022-11-07T01:56:57.768Z,100560.59
2022-11-07T01:59:31.695Z,100559.22
2022-11-07T02:02:05.231Z,100573.13
2022-11-07T02:04:37.830Z,100574.00
2022-11-07T02:07:20.952Z,100572.78
2022-11-07T02:09:53.973Z,100583.22
2022-11-07T02:12:27.324Z,100572.34
2022-11-07T02:14:59.840Z,100573.09
2022-11-07T02:17:32.130Z,100577.41
2022-11-07T02:20:04.838Z,100579.56
2022-11-07T02:22:43.108Z,100572.13
2022-11-07T02:25:16.695Z,100577.22
2022-11-07T02:27:51.512Z,100580.03
2022-11-07T02:30:26.033Z,100586.25
2022-11-07T02:32:58.305Z,100568.06
2022-11-07T02:35:40.994Z,100576.41
2022-11-07T02:38:25.518Z,100577.75
2022-11-07T02:41:00.298Z,100573.63
2022-11-07T02:43:34.374Z,100575.66
2022-11-07T02:46:09.029Z,100570.00
2022-11-07T02:48:46.229Z,100567.75
2022-11-07T02:51:18.551Z,100569.28
2022-11-07T02:53:51.564Z,100575.50
2022-11-07T02:56:24.635Z,100568.28
2022-11-07T02:58:56.950Z,100574.59
2022-11-07T03:01:29.383Z,100577.41
2022-11-07T03:04:01.747Z,100573.63
2022-11-07T03:06:34.017Z,100570.00
2022-11-07T03:09:06.478Z,100573.16
2022-11-07T03:11:39.082Z,100577.97
2022-11-07T03:14:11.385Z,100577.50
2022-11-07T03:16:43.692Z,100575.16
2022-11-07T03:19:16.310Z,100573.75
2022-11-07T03:21:51.796Z,100574.88
2022-11-07T03:24:25.311Z,100581.38
2022-11-07T03:26:57.636Z,100584.69
2022-11-07T03:29:30.043Z,100585.22
2022-11-07T03:32:02.367Z,100583.16
2022-11-07T03:34:34.718Z,100581.97
2022-11-07T03:37:07.023Z,100585.41
2022-11-07T03:39:39.338Z,100578.69
2022-11-07T03:42:11.630Z,100577.78
2022-11-07T03:44:44.010Z,100579.59
2022-11-07T03:47:16.319Z,100587.00
2022-11-07T03:49:48.621Z,100571.09
2022-11-07T03:52:20.885Z,100585.13
2022-11-07T03:54:53.183Z,100582.06
2022-11-07T03:57:25.468Z,100578.94
2022-11-07T03:59:57.798Z,100579.78
2022-11-07T04:02:30.212Z,100581.84
2022-11-07T04:05:02.573Z,100579.97
2022-11-07T04:07:34.825Z,100581.94
2022-11-07T04:10:07.309Z,100572.19
2022-11-07T04:12:58.323Z,100578.50
2022-11-07T04:15:49.048Z,100568.84
2022-11-07T04:18:21.373Z,100578.25
2022-11-07T04:20:53.712Z,100578.38
2022-11-07T04:23:26.107Z,100581.06
2022-11-07T04:26:17.158Z,100570.81
2022-11-07T04:28:49.431Z,100571.63
2022-11-07T04:31:22.311Z,100568.50
2022-11-07T04:33:54.629Z,100569.19
2022-11-07T04:36:26.935Z,100568.84
2022-11-07T04:38:59.414Z,100590.97
2022-11-07T04:41:31.714Z,100584.69
2022-11-07T04:44:04.130Z,100591.47
2022-11-07T04:46:36.409Z,100582.84
2022-11-07T04:49:08.669Z,100583.97
2022-11-07T04:51:41.434Z,100587.03
2022-11-07T04:54:16.173Z,100574.97
2022-11-07T04:56:48.677Z,100586.69
2022-11-07T04:59:21.150Z,100586.97
2022-11-07T05:01:53.532Z,100580.97
2022-11-07T05:04:26.161Z,100584.94
2022-11-07T05:06:58.453Z,100582.97
2022-11-07T05:09:30.857Z,100582.53
2022-11-07T05:12:03.206Z,100581.06
2022-11-07T05:14:35.736Z,100586.50
2022-11-07T05:17:10.222Z,100595.97
2022-11-07T05:19:45.440Z,100600.28
2022-11-07T05:22:36.457Z,100589.59
2022-11-07T05:25:08.964Z,100604.59
2022-11-07T05:27:41.310Z,100601.41
2022-11-07T05:30:13.695Z,100596.69
2022-11-07T05:32:45.970Z,100592.53
2022-11-07T05:35:18.249Z,100598.69
2022-11-07T05:37:50.767Z,100603.25
2022-11-07T05:40:23.041Z,100608.59
2022-11-07T05:43:05.199Z,100609.66
2022-11-07T05:45:38.103Z,100608.69
2022-11-07T05:48:11.739Z,100604.28
2022-11-07T05:50:44.083Z,100606.72
2022-11-07T05:53:16.788Z,100606.00
2022-11-07T05:55:49.512Z,100601.09
2022-11-07T05:58:22.343Z,100601.28
2022-11-07T06:00:54.623Z,100607.22
2022-11-07T06:03:26.919Z,100609.81
2022-11-07T06:05:59.384Z,100617.25
2022-11-07T06:08:31.714Z,100601.53
2022-11-07T06:11:04.772Z,100605.88
2022-11-07T06:13:37.032Z,100608.28
2022-11-07T06:16:09.354Z,100609.91
2022-11-07T06:18:42.042Z,100597.72
2022-11-07T06:21:14.456Z,100601.09
2022-11-07T06:23:46.768Z,100605.88
2022-11-07T06:26:19.152Z,100617.59
2022-11-07T06:28:51.503Z,100612.31
2022-11-07T06:31:23.928Z,100621.56
2022-11-07T06:33:56.216Z,100616.38
2022-11-07T06:36:28.540Z,100624.06
2022-11-07T06:39:00.859Z,100624.16
2022-11-07T06:41:33.185Z,100628.63
2022-11-07T06:44:05.504Z,100630.84
2022-11-07T06:46:38.062Z,100642.59
2022-11-07T06:49:10.829Z,100637.66
2022-11-07T06:51:47.803Z,100641.56
2022-11-07T06:54:20.498Z,100636.03
2022-11-07T06:56:52.877Z,100643.09
2022-11-07T06:59:25.238Z,100645.16
2022-11-07T07:01:57.560Z,100633.59
2022-11-07T07:04:29.889Z,100646.69
2022-11-07T07:07:02.199Z,100651.53
2022-11-07T07:09:36.850Z,100653.09
2022-11-07T07:12:10.698Z,100649.81
2022-11-07T07:14:43.065Z,100663.41
2022-11-07T07:17:16.579Z,100671.72
2022-11-07T07:19:48.848Z,100671.22
2022-11-07T07:22:21.337Z,100682.16
2022-11-07T07:24:53.703Z,100670.56
2022-11-07T07:27:26.005Z,100675.66
2022-11-07T07:30:00.939Z,100677.91
2022-11-07T07:32:35.278Z,100680.16
2022-11-07T07:35:07.759Z,100685.59
2022-11-07T07:37:40.303Z,100681.25
2022-11-07T07:40:12.661Z,100693.09
2022-11-07T07:42:45.578Z,100705.72
2022-11-07T07:45:18.019Z,100698.53
2022-11-07T07:47:54.386Z,100696.53
2022-11-07T07:50:34.499Z,100696.88
2022-11-07T07:53:09.240Z,100694.72
2022-11-07T07:55:41.785Z,100698.94
2022-11-07T07:58:14.209Z,100716.22
2022-11-07T08:00:46.672Z,100704.88
2022-11-07T08:03:19.623Z,100715.28
2022-11-07T08:05:59.058Z,100713.53
2022-11-07T08:08:37.770Z,100712.91
2022-11-07T08:11:14.402Z,100718.56
2022-11-07T08:13:46.797Z,100716.25
2022-11-07T08:16:19.086Z,100722.28
2022-11-07T08:18:51.371Z,100724.50
2022-11-07T08:21:23.752Z,100721.69
2022-11-07T08:23:56.609Z,100721.31
2022-11-07T08:26:36.950Z,100723.41
2022-11-07T08:29:09.321Z,100730.44
2022-11-07T08:31:41.636Z,100715.63
2022-11-07T08:34:15.849Z,100735.16
2022-11-07T08:36:48.146Z,100726.41
2022-11-07T08:39:20.494Z,100733.59
2022-11-07T08:41:52.884Z,100740.28
2022-11-07T08:44:25.184Z,100739.94
2022-11-07T08:46:58.685Z,100742.59
2022-11-07T08:49:30.996Z,100742.47
2022-11-07T08:52:31.428Z,100747.34
2022-11-07T08:55:04.518Z,100753.97
2022-11-07T08:57:39.146Z,100741.34
2022-11-07T09:00:14.174Z,100756.41
2022-11-07T09:06:06.019Z,100763.00
2022-11-07T09:08:38.589Z,100760.66
2022-11-07T09:11:22.111Z,100773.06
2022-11-07T09:13:55.495Z,100764.75
2022-11-07T09:16:27.908Z,100777.72
2022-11-07T09:19:06.005Z,100768.06
2022-11-07T09:21:38.725Z,100772.63
2022-11-07T09:24:13.291Z,100785.72
2022-11-07T09:26:57.124Z,100782.06
2022-11-07T09:29:33.458Z,100792.47
2022-11-07T09:32:42.912Z,100796.09
2022-11-07T09:35:05.379Z,100791.88
2022-11-07T09:37:49.583Z,100787.63
2022-11-07T09:40:23.165Z,100796.75
2022-11-07T09:43:07.853Z,100803.03
2022-11-07T09:46:00.753Z,100790.81
2022-11-07T09:48:38.486Z,100787.25
2022-11-07T09:51:13.787Z,100782.34
2022-11-07T09:53:48.402Z,100783.09
2022-11-07T09:56:21.464Z,100792.44
2022-11-07T09:59:09.708Z,100779.28
2022-11-07T10:01:45.312Z,100784.84
2022-11-07T10:04:25.341Z,100788.94
2022-11-07T10:07:03.896Z,100789.47
2022-11-07T10:09:49.882Z,100795.25
2022-11-07T10:12:44.322Z,100802.53
2022-11-07T10:15:27.694Z,100797.38
2022-11-07T10:18:18.902Z,100808.09
2022-11-07T10:21:35.769Z,100810.50
2022-11-07T10:24:03.879Z,100802.03
2022-11-07T10:26:36.989Z,100813.00
2022-11-07T10:29:12.474Z,100820.53
2022-11-07T10:31:48.886Z,100822.31
2022-11-07T10:34:26.147Z,100816.22
2022-11-07T10:36:58.447Z,100829.72
2022-11-07T10:39:31.416Z,100817.50
2022-11-07T10:42:06.680Z,100831.41
2022-11-07T10:44:40.602Z,100828.44
2022-11-07T10:47:17.730Z,100821.09
2022-11-07T10:50:06.631Z,100834.97
2022-11-07T10:52:41.251Z,100850.88
2022-11-07T10:55:17.334Z,100843.19
2022-11-07T10:57:54.130Z,100832.94
2022-11-07T11:00:33.184Z,100833.97
2022-11-07T11:03:15.928Z,100827.56
2022-11-07T11:05:48.278Z,100824.84
2022-11-07T11:08:22.614Z,100839.75
2022-11-07T11:10:54.934Z,100832.13
2022-11-07T11:13:31.877Z,100833.78
2022-11-07T11:16:13.391Z,100827.03
2022-11-07T11:18:49.943Z,100825.06
2022-11-07T11:21:22.644Z,100823.59
2022-11-07T11:23:54.978Z,100823.47
2022-11-07T11:26:32.266Z,100826.06
2022-11-07T11:29:10.852Z,100821.13
2022-11-07T11:31:46.007Z,100821.56
2022-11-07T11:34:21.611Z,100811.63
2022-11-07T11:36:58.103Z,100822.31
2022-11-07T11:39:43.987Z,100806.59
2022-11-07T11:42:26.009Z,100811.41
2022-11-07T11:45:03.423Z,100810.28
2022-11-07T11:47:37.657Z,100810.59
2022-11-07T11:50:13.465Z,100810.88
2022-11-07T11:52:46.356Z,100817.75
2022-11-07T11:55:20.621Z,100822.56
2022-11-07T11:57:55.919Z,100813.88
2022-11-07T12:00:31.812Z,100810.53
2022-11-07T12:03:43.329Z,100819.22
2022-11-07T12:06:17.377Z,100817.84
2022-11-07T12:09:01.373Z,100801.59
2022-11-07T12:11:38.354Z,100807.75
2022-11-07T12:14:13.816Z,100806.34
2022-11-07T12:16:50.024Z,100815.44
2022-11-07T12:19:32.307Z,100813.16
2022-11-07T12:22:07.709Z,100807.50
2022-11-07T12:24:52.320Z,100815.66
2022-11-07T12:27:42.952Z,100820.38
2022-11-07T12:30:24.617Z,100808.19
2022-11-07T12:33:08.292Z,100817.41
2022-11-07T12:35:55.175Z,100825.72
2022-11-07T12:38:42.765Z,100820.03
2022-11-07T12:41:17.191Z,100821.66
2022-11-07T12:43:56.551Z,100811.56
2022-11-07T12:46:28.845Z,100823.69
2022-11-07T12:49:20.415Z,100811.59
2022-11-07T12:51:59.026Z,100812.50
2022-11-07T12:54:44.114Z,100810.66
2022-11-07T12:57:16.381Z,100806.56
2022-11-07T12:59:51.721Z,100812.50
2022-11-07T13:02:43.402Z,100805.50
2022-11-07T13:05:20.725Z,100803.66
2022-11-07T13:07:57.067Z,100797.06
2022-11-07T13:10:48.423Z,100800.75
2022-11-07T13:13:31.661Z,100796.75
2022-11-07T13:16:22.922Z,100802.00
2022-11-07T13:18:55.662Z,100795.50
2022-11-07T13:21:28.003Z,100793.66
2022-11-07T13:24:05.389Z,100796.84
2022-11-07T13:26:52.932Z,100785.81
2022-11-07T13:29:33.694Z,100785.75
2022-11-07T13:32:06.234Z,100783.75
2022-11-07T13:34:44.765Z,100787.69
2022-11-07T13:37:19.797Z,100779.38
2022-11-07T13:39:56.166Z,100786.78
2022-11-07T13:42:30.250Z,100781.59
2022-11-07T13:45:21.471Z,100782.34
2022-11-07T13:47:59.460Z,100781.34
2022-11-07T13:50:37.097Z,100774.91
2022-11-07T13:53:17.442Z,100771.53
2022-11-07T13:56:14.041Z,100776.81
2022-11-07T13:58:47.909Z,100778.38
2022-11-07T14:01:20.555Z,100773.09
2022-11-07T14:03:52.844Z,100769.50
2022-11-07T14:06:26.694Z,100780.34
2022-11-07T14:08:59.025Z,100774.00
2022-11-07T14:11:35.202Z,100778.06
2022-11-07T14:14:08.410Z,100777.50
2022-11-07T14:16:44.275Z,100770.84
2022-11-07T14:19:18.242Z,100772.69
2022-11-07T14:21:50.524Z,100788.31
2022-11-07T14:24:24.651Z,100788.63
2022-11-07T14:26:57.650Z,100785.75
2022-11-07T14:29:30.081Z,100781.88
2022-11-07T14:32:03.905Z,100783.88
2022-11-07T14:34:36.390Z,100781.31
2022-11-07T14:37:13.757Z,100779.16
2022-11-07T14:39:48.553Z,100781.31
2022-11-07T14:42:22.875Z,100773.06
2022-11-07T14:44:56.220Z,100779.72
2022-11-07T14:47:32.872Z,100772.78
2022-11-07T14:50:06.000Z,100775.44
2022-11-07T14:52:42.546Z,100780.34
2022-11-07T14:55:20.766Z,100776.69
2022-11-07T14:57:53.337Z,100778.94
2022-11-07T15:00:25.844Z,100769.78
2022-11-07T15:02:59.115Z,100770.69
2022-11-07T15:05:37.422Z,100773.38
2022-11-07T15:08:24.679Z,100772.31
2022-11-07T15:11:08.117Z,100774.50
2022-11-07T15:13:40.890Z,100767.31
2022-11-07T15:16:20.299Z,100774.78
2022-11-07T15:19:00.223Z,100763.66
2022-11-07T15:21:51.828Z,100751.78
2022-11-07T15:24:33.826Z,100771.03
2022-11-07T15:27:26.467Z,100766.75
2022-11-07T15:30:04.129Z,100771.66
2022-11-07T15:32:41.109Z,100775.03
2022-11-07T15:35:42.387Z,100774.25
2022-11-07T15:38:18.684Z,100774.38
2022-11-07T15:40:54.231Z,100775.88
2022-11-07T15:43:26.977Z,100773.09
2022-11-07T15:46:00.796Z,100774.88
2022-11-07T15:48:39.774Z,100779.56
2022-11-07T15:51:13.636Z,100776.44
2022-11-07T15:53:46.012Z,100783.78
2022-11-07T15:56:21.996Z,100779.00
2022-11-07T15:58:54.638Z,100774.22
2022-11-07T16:01:27.027Z,100774.56
2022-11-07T16:03:59.521Z,100766.81
2022-11-07T16:06:32.000Z,100764.91
2022-11-07T16:09:10.072Z,100757.25
2022-11-07T16:11:42.417Z,100764.03
2022-11-07T16:14:42.408Z,100765.72
2022-11-07T16:17:11.709Z,100760.41
2022-11-07T16:19:44.379Z,100780.16
2022-11-07T16:22:17.041Z,100778.50
2022-11-07T16:24:49.347Z,100779.13
2022-11-07T16:27:21.906Z,100779.44
2022-11-07T16:29:54.398Z,100778.09
2022-11-07T16:32:26.834Z,100784.44
2022-11-07T16:34:59.214Z,100793.22
2022-11-07T16:37:31.575Z,100791.28
2022-11-07T16:40:05.189Z,100792.97
2022-11-07T16:42:37.804Z,100793.72
2022-11-07T16:45:13.723Z,100790.38
2022-11-07T16:47:46.195Z,100791.94
2022-11-07T16:50:18.578Z,100787.78
2022-11-07T16:52:50.871Z,100787.63
2022-11-07T16:55:23.164Z,100783.28
2022-11-07T16:57:55.476Z,100785.72
2022-11-07T17:00:27.762Z,100789.00
2022-11-07T17:03:00.226Z,100787.72
2022-11-07T17:05:32.628Z,100788.28
2022-11-07T17:08:10.643Z,100799.38
2022-11-07T17:10:42.940Z,100793.59
2022-11-07T17:13:15.279Z,100789.00
2022-11-07T17:15:47.585Z,100800.44
2022-11-07T17:18:22.112Z,100806.50
2022-11-07T17:20:55.042Z,100804.19
2022-11-07T17:23:30.378Z,100800.84
2022-11-07T17:26:02.968Z,100799.16
2022-11-07T17:28:36.235Z,100801.81
2022-11-07T17:31:08.607Z,100801.50
2022-11-07T17:33:41.110Z,100810.38
2022-11-07T17:36:21.280Z,100803.84
2022-11-07T17:38:54.425Z,100805.81
2022-11-07T17:41:30.296Z,100802.47
2022-11-07T17:44:03.695Z,100802.38
2022-11-07T17:46:39.711Z,100805.69
2022-11-07T17:49:16.094Z,100808.16
2022-11-07T17:51:48.447Z,100805.38
2022-11-07T17:54:24.106Z,100804.59
2022-11-07T17:57:00.756Z,100809.25
2022-11-07T17:59:33.058Z,100800.34
2022-11-07T18:02:12.858Z,100794.31
2022-11-07T18:04:45.955Z,100794.06
2022-11-07T18:07:18.671Z,100798.50
2022-11-07T18:09:53.125Z,100798.66
2022-11-07T18:12:25.430Z,100809.75
2022-11-07T18:14:57.728Z,100812.19
2022-11-07T18:17:30.038Z,100802.97
2022-11-07T18:20:04.002Z,100798.66
2022-11-07T18:22:37.307Z,100793.78
2022-11-07T18:25:10.808Z,100803.50
2022-11-07T18:27:43.088Z,100803.19
2022-11-07T18:30:15.428Z,100803.56
2022-11-07T18:32:47.772Z,100799.88
2022-11-07T18:35:20.313Z,100804.47
2022-11-07T18:37:52.638Z,100802.56
2022-11-07T18:40:25.000Z,100803.81
2022-11-07T18:42:57.360Z,100800.69
2022-11-07T18:45:29.738Z,100801.81
2022-11-07T18:48:02.032Z,100806.81
2022-11-07T18:50:36.797Z,100802.66
2022-11-07T18:53:09.176Z,100803.47
2022-11-07T18:55:41.596Z,100801.56
2022-11-07T18:58:14.117Z,100811.75
2022-11-07T19:00:46.583Z,100802.09
2022-11-07T19:03:19.200Z,100804.53
2022-11-07T19:05:52.396Z,100810.41
2022-11-07T19:08:24.739Z,100799.13
2022-11-07T19:10:57.496Z,100805.97
2022-11-07T19:13:29.814Z,100798.00
2022-11-07T19:16:02.907Z,100802.53
2022-11-07T19:18:35.945Z,100803.50
2022-11-07T19:21:08.509Z,100809.78
2022-11-07T19:23:42.076Z,100813.19
2022-11-07T19:26:14.915Z,100803.88
2022-11-07T19:28:48.617Z,100802.41
2022-11-07T19:31:21.319Z,100803.28
2022-11-07T19:33:53.589Z,100802.41
2022-11-07T19:36:25.915Z,100803.88
2022-11-07T19:38:58.496Z,100803.44
2022-11-07T19:41:30.817Z,100803.09
2022-11-07T19:44:04.380Z,100803.28
2022-11-07T19:46:36.856Z,100806.41
2022-11-07T19:49:09.205Z,100810.19
2022-11-07T19:51:41.523Z,100813.31
2022-11-07T19:54:14.011Z,100803.78
2022-11-07T19:56:46.464Z,100807.84
2022-11-07T19:59:18.853Z,100801.88
2022-11-07T20:02:11.054Z,100811.72
2022-11-07T20:04:43.480Z,100809.78
2022-11-07T20:07:15.829Z,100801.63
2022-11-07T20:09:48.292Z,100806.94
2022-11-07T20:12:20.976Z,100809.59
2022-11-07T20:14:53.542Z,100811.59
2022-11-07T20:17:25.915Z,100804.59
2022-11-07T20:20:03.456Z,100812.69
2022-11-07T20:22:38.941Z,100820.00
2022-11-07T20:25:13.034Z,100812.41
2022-11-07T20:27:45.558Z,100820.28
2022-11-07T20:30:18.080Z,100818.41
2022-11-07T20:32:50.434Z,100816.88
2022-11-07T20:35:22.755Z,100816.53
2022-11-07T20:37:55.079Z,100824.06
2022-11-07T20:40:29.474Z,100808.22
2022-11-07T20:43:02.824Z,100829.72
2022-11-07T20:45:35.439Z,100827.38
2022-11-07T20:48:07.800Z,100827.13
2022-11-07T20:50:40.148Z,100826.69
2022-11-07T20:53:12.473Z,100829.03
2022-11-07T20:55:44.886Z,100828.88
2022-11-07T20:58:17.196Z,100815.81
2022-11-07T21:00:51.398Z,100810.19
2022-11-07T21:03:24.102Z,100818.84
2022-11-07T21:05:56.448Z,100814.63
2022-11-07T21:08:31.980Z,100820.84
2022-11-07T21:11:09.154Z,100823.97
2022-11-07T21:13:45.400Z,100822.75
2022-11-07T21:16:24.396Z,100822.41
2022-11-07T21:18:56.735Z,100820.84
2022-11-07T21:21:29.357Z,100815.66
2022-11-07T21:24:01.878Z,100821.88
2022-11-07T21:26:35.837Z,100823.09
2022-11-07T21:29:08.618Z,100817.56
2022-11-07T21:31:40.993Z,100820.16
2022-11-07T21:34:13.471Z,100815.38
2022-11-07T21:36:45.888Z,100818.66
2022-11-07T21:39:18.197Z,100819.31
2022-11-07T21:41:50.491Z,100813.75
2022-11-07T21:44:22.802Z,100812.16
2022-11-07T21:46:55.104Z,100815.47
2022-11-07T21:49:27.424Z,100815.13
2022-11-07T21:51:59.687Z,100812.72
2022-11-07T21:54:31.972Z,100808.97
2022-11-07T21:57:04.240Z,100809.41
2022-11-07T21:59:36.828Z,100804.16
2022-11-07T22:02:11.615Z,100794.53
2022-11-07T22:04:44.100Z,100803.81
2022-11-07T22:07:16.471Z,100801.66
2022-11-07T22:09:48.877Z,100801.31
2022-11-07T22:12:21.264Z,100797.69
2022-11-07T22:14:53.718Z,100800.63
2022-11-07T22:17:27.144Z,100792.84
2022-11-07T22:19:59.617Z,100788.34
2022-11-07T22:22:32.061Z,100792.06
2022-11-07T22:25:04.844Z,100788.72
2022-11-07T22:27:37.476Z,100777.66
2022-11-07T22:30:10.083Z,100776.97
2022-11-07T22:32:42.485Z,100769.88
2022-11-07T22:35:14.905Z,100778.69
2022-11-07T22:37:47.463Z,100776.44
2022-11-07T22:40:20.510Z,100779.72
2022-11-07T22:42:53.016Z,100764.00
2022-11-07T22:45:25.412Z,100762.28
2022-11-07T22:47:57.835Z,100768.69
2022-11-07T22:50:30.345Z,100765.72
2022-11-07T22:53:02.809Z,100766.06
2022-11-07T22:55:39.187Z,100764.06
2022-11-07T22:58:11.570Z,100763.13
2022-11-07T23:00:44.113Z,100759.78
2022-11-07T23:03:16.570Z,100759.16
2022-11-07T23:05:49.062Z,100744.28
2022-11-07T23:08:21.467Z,100748.25
2022-11-07T23:11:13.711Z,100747.41
2022-11-07T23:13:50.769Z,100745.69
2022-11-07T23:16:33.769Z,100747.06
2022-11-07T23:19:08.002Z,100748.78
2022-11-07T23:21:40.543Z,100745.41
2022-11-07T23:24:13.025Z,100739.63
2022-11-07T23:26:45.517Z,100745.16
2022-11-07T23:29:19.942Z,100737.34
2022-11-07T23:31:52.730Z,100737.47
2022-11-07T23:34:25.963Z,100732.16
2022-11-07T23:36:58.935Z,100722.66
2022-11-07T23:39:31.358Z,100730.19
2022-11-07T23:42:03.810Z,100730.34
2022-11-07T23:44:59.090Z,100727.66
2022-11-07T23:47:49.925Z,100723.41
2022-11-07T23:50:40.941Z,100723.69
2022-11-07T23:53:31.598Z,100723.97
2022-11-07T23:56:05.576Z,100720.97
2022-11-07T23:58:56.703Z,100711.72
